Time;durP1;ratioP1;P1;durP2;ratioP2;P2;SDS_P1;SDS_P2;PMS_P1;PMS_P2;Temp;Humidity;BMP_temperature;BMP_pressure;BME280_temperature;BME280_humidity;BME280_pressure;Samples;Min_cycle;Max_cycle;Signal;HPM_P1;HPM_P2
2022/11/18 00:01:46;;;;;;;15.27;9.10;;;;;;;;;;5008245;28;20239;-81
2022/11/18 00:04:14;;;;;;;13.43;8.73;;;;;;;;;;5009466;28;20226;-81
2022/11/18 00:06:41;;;;;;;11.83;7.37;;;;;;;;;;5003243;28;20238;-81
2022/11/18 00:09:09;;;;;;;12.60;7.87;;;;;;;;;;5007972;28;20203;-81
2022/11/18 00:14:22;;;;;;;15.13;6.63;;;;;;;;;;5007944;28;21012;-81
2022/11/18 00:16:50;;;;;;;7.43;5.67;;;;;;;;;;5002639;28;20237;-81
2022/11/18 00:19:19;;;;;;;7.67;5.33;;;;;;;;;;5000765;28;20988;-81
2022/11/18 00:21:46;;;;;;;7.67;5.60;;;;;;;;;;5000336;28;20812;-79
2022/11/18 00:24:13;;;;;;;6.60;5.67;;;;;;;;;;5008476;28;20663;-79
2022/11/18 00:26:40;;;;;;;7.43;4.90;;;;;;;;;;5007935;28;20936;-78
2022/11/18 00:29:09;;;;;;;7.70;5.73;;;;;;;;;;5008099;28;20198;-79
2022/11/18 00:31:36;;;;;;;5.17;4.67;;;;;;;;;;5007624;28;20231;-79
2022/11/18 00:34:03;;;;;;;6.63;5.50;;;;;;;;;;5009738;28;20211;-79
2022/11/18 00:36:31;;;;;;;8.93;5.60;;;;;;;;;;5008175;28;20241;-79
2022/11/18 00:38:59;;;;;;;9.00;5.50;;;;;;;;;;4991658;28;20200;-79
2022/11/18 00:42:50;;;;;;;7.57;5.87;;;;;;;;;;5003167;28;20231;-79
2022/11/18 00:44:13;;;;;;;6.23;5.40;;;;;;;;;;4996627;28;20225;-79
2022/11/18 00:46:40;;;;;;;11.97;6.70;;;;;;;;;;5006319;28;20226;-79
2022/11/18 00:49:07;;;;;;;8.50;6.30;;;;;;;;;;5002714;28;20211;-79
2022/11/18 00:51:36;;;;;;;11.23;6.53;;;;;;;;;;5008819;28;20230;-79
2022/11/18 00:54:03;;;;;;;8.67;6.10;;;;;;;;;;5012532;28;20210;-79
2022/11/18 00:56:31;;;;;;;10.30;6.97;;;;;;;;;;5011217;28;21074;-79
2022/11/18 00:58:58;;;;;;;13.37;7.60;;;;;;;;;;5011518;28;20991;-79
2022/11/18 01:01:25;;;;;;;11.57;7.90;;;;;;;;;;5011090;28;20241;-79
2022/11/18 01:03:52;;;;;;;11.90;8.27;;;;;;;;;;5011936;28;20908;-79
2022/11/18 01:06:19;;;;;;;13.50;8.20;;;;;;;;;;5009718;28;20235;-79
2022/11/18 01:08:47;;;;;;;13.10;8.57;;;;;;;;;;5012784;28;20217;-79
2022/11/18 01:13:59;;;;;;;12.50;7.70;;;;;;;;;;5012239;28;20261;-79
2022/11/18 01:16:28;;;;;;;11.70;8.00;;;;;;;;;;5012025;28;20250;-79
2022/11/18 01:18:55;;;;;;;14.63;8.03;;;;;;;;;;5011806;28;20316;-79
2022/11/18 01:21:22;;;;;;;13.73;8.40;;;;;;;;;;5012192;28;20230;-79
2022/11/18 01:23:50;;;;;;;11.37;8.37;;;;;;;;;;5009016;28;20213;-79
2022/11/18 01:26:18;;;;;;;11.80;7.60;;;;;;;;;;5011873;28;20281;-79
2022/11/18 01:28:45;;;;;;;14.57;7.90;;;;;;;;;;5013685;28;20971;-79
2022/11/18 01:31:13;;;;;;;12.40;7.70;;;;;;;;;;5011117;28;20250;-79
2022/11/18 01:33:41;;;;;;;10.17;7.57;;;;;;;;;;5011633;28;20229;-79
2022/11/18 01:36:15;;;;;;;13.70;8.27;;;;;;;;;;5012474;28;20233;-79
2022/11/18 01:38:42;;;;;;;11.70;7.50;;;;;;;;;;5007224;28;20203;-79
2022/11/18 01:41:10;;;;;;;9.73;7.73;;;;;;;;;;5010899;28;20241;-79
2022/11/18 01:43:48;;;;;;;14.50;8.30;;;;;;;;;;5011607;28;20211;-79
2022/11/18 01:46:15;;;;;;;11.77;8.47;;;;;;;;;;5010840;28;21090;-79
2022/11/18 01:48:44;;;;;;;16.73;8.97;;;;;;;;;;5011730;28;20210;-79
2022/11/18 01:51:12;;;;;;;13.00;9.20;;;;;;;;;;5010859;28;20231;-79
2022/11/18 01:53:42;;;;;;;17.10;9.23;;;;;;;;;;5011756;28;20199;-79
2022/11/18 01:56:12;;;;;;;14.77;9.73;;;;;;;;;;5010993;28;20231;-79
2022/11/18 01:58:42;;;;;;;16.00;9.23;;;;;;;;;;5009967;28;20207;-79
2022/11/18 02:01:09;;;;;;;15.63;10.00;;;;;;;;;;5010504;28;20235;-79
2022/11/18 02:03:37;;;;;;;17.73;10.70;;;;;;;;;;5006771;28;20675;-79
2022/11/18 02:06:05;;;;;;;19.43;10.30;;;;;;;;;;5008983;28;20308;-79
2022/11/18 02:08:36;;;;;;;13.90;9.77;;;;;;;;;;5006406;28;21142;-79
2022/11/18 02:11:03;;;;;;;18.10;10.17;;;;;;;;;;5010325;28;21059;-79
2022/11/18 02:13:32;;;;;;;18.00;9.90;;;;;;;;;;5009078;28;20222;-79
2022/11/18 02:16:06;;;;;;;12.00;8.83;;;;;;;;;;5010337;28;20345;-79
2022/11/18 02:18:38;;;;;;;11.03;9.43;;;;;;;;;;5006690;28;20222;-79
2022/11/18 02:21:12;;;;;;;16.03;9.77;;;;;;;;;;5007875;28;20234;-79
2022/11/18 02:23:58;;;;;;;15.40;9.87;;;;;;;;;;5010562;28;20206;-79
2022/11/18 02:26:35;;;;;;;12.93;9.80;;;;;;;;;;5001197;28;20231;-79
2022/11/18 02:29:05;;;;;;;13.87;9.50;;;;;;;;;;5007543;28;20221;-79
2022/11/18 02:31:34;;;;;;;15.03;10.03;;;;;;;;;;5010000;28;20234;-79
2022/11/18 02:34:04;;;;;;;17.27;10.80;;;;;;;;;;5009890;28;20943;-79
2022/11/18 02:36:35;;;;;;;18.63;11.40;;;;;;;;;;5010141;28;20246;-79
2022/11/18 02:39:05;;;;;;;18.97;10.43;;;;;;;;;;5003224;28;20195;-79
2022/11/18 02:41:34;;;;;;;19.70;9.87;;;;;;;;;;5010617;28;20238;-79
2022/11/18 02:44:04;;;;;;;13.63;9.97;;;;;;;;;;5010863;28;20203;-79
2022/11/18 02:46:34;;;;;;;17.63;10.80;;;;;;;;;;5010355;28;20254;-80
2022/11/18 02:49:02;;;;;;;15.10;9.50;;;;;;;;;;5011159;28;20199;-80
2022/11/18 02:51:30;;;;;;;17.93;9.83;;;;;;;;;;5010420;28;20245;-79
2022/11/18 02:54:00;;;;;;;14.57;9.93;;;;;;;;;;5010575;28;20210;-80
2022/11/18 02:56:28;;;;;;;14.03;10.07;;;;;;;;;;5009846;28;20698;-80
2022/11/18 02:58:55;;;;;;;13.50;9.53;;;;;;;;;;5010556;28;20202;-79
2022/11/18 03:01:26;;;;;;;16.30;9.23;;;;;;;;;;5010650;28;20238;-80
2022/11/18 03:03:54;;;;;;;13.17;8.93;;;;;;;;;;5011135;28;20198;-79
2022/11/18 03:06:28;;;;;;;10.83;9.00;;;;;;;;;;5010505;28;20237;-79
2022/11/18 03:08:58;;;;;;;15.93;9.63;;;;;;;;;;5010165;28;20281;-79
2022/11/18 03:11:27;;;;;;;14.13;9.13;;;;;;;;;;5010346;28;20575;-79
2022/11/18 03:14:03;;;;;;;16.87;10.40;;;;;;;;;;5010199;28;20207;-79
2022/11/18 03:16:33;;;;;;;14.40;10.13;;;;;;;;;;5009741;28;20229;-79
2022/11/18 03:19:05;;;;;;;13.67;9.77;;;;;;;;;;5010722;28;20206;-79
2022/11/18 03:21:36;;;;;;;14.87;10.70;;;;;;;;;;5009102;28;20235;-79
2022/11/18 03:24:07;;;;;;;16.37;10.33;;;;;;;;;;5010622;28;20921;-79
2022/11/18 03:26:36;;;;;;;17.43;10.30;;;;;;;;;;5009824;28;20242;-79
2022/11/18 03:29:05;;;;;;;14.70;10.67;;;;;;;;;;5009210;28;20222;-79
2022/11/18 03:31:36;;;;;;;15.53;10.40;;;;;;;;;;5010032;28;20238;-79
2022/11/18 03:34:06;;;;;;;15.50;10.40;;;;;;;;;;5009748;28;20217;-79
2022/11/18 03:36:36;;;;;;;17.67;10.10;;;;;;;;;;4999857;28;20288;-79
2022/11/18 03:39:05;;;;;;;15.50;9.53;;;;;;;;;;5009656;28;20227;-79
2022/11/18 03:41:36;;;;;;;18.70;10.20;;;;;;;;;;5009806;28;20329;-79
2022/11/18 03:44:07;;;;;;;17.33;10.20;;;;;;;;;;5010500;28;20203;-79
2022/11/18 03:46:36;;;;;;;14.63;9.97;;;;;;;;;;5009610;28;20246;-79
2022/11/18 03:49:05;;;;;;;16.23;9.10;;;;;;;;;;5009656;28;20202;-79
2022/11/18 03:51:34;;;;;;;15.50;8.67;;;;;;;;;;5009366;28;20230;-79
2022/11/18 03:54:03;;;;;;;14.23;8.80;;;;;;;;;;5009896;28;20245;-79
2022/11/18 03:56:32;;;;;;;10.43;8.00;;;;;;;;;;5009041;28;20235;-79
2022/11/18 03:59:03;;;;;;;13.83;8.23;;;;;;;;;;5009903;28;20223;-79
2022/11/18 04:01:32;;;;;;;14.70;9.07;;;;;;;;;;5007851;28;20233;-79
2022/11/18 04:03:59;;;;;;;11.60;8.70;;;;;;;;;;5009449;28;20221;-79
2022/11/18 04:06:31;;;;;;;16.23;9.33;;;;;;;;;;5009242;28;20245;-79
2022/11/18 04:09:01;;;;;;;12.77;9.17;;;;;;;;;;5009295;28;20191;-79
2022/11/18 04:14:17;;;;;;;15.10;9.97;;;;;;;;;;5010787;28;20183;-79
2022/11/18 04:16:45;;;;;;;18.73;11.20;;;;;;;;;;5009871;28;20238;-78
2022/11/18 04:19:12;;;;;;;13.33;9.80;;;;;;;;;;5008084;28;20218;-79
2022/11/18 04:21:40;;;;;;;18.37;10.30;;;;;;;;;;5009129;28;20230;-79
2022/11/18 04:24:08;;;;;;;17.43;11.00;;;;;;;;;;5008716;28;20207;-79
2022/11/18 04:26:35;;;;;;;17.33;11.07;;;;;;;;;;5010083;28;20243;-79
2022/11/18 04:29:02;;;;;;;19.50;11.10;;;;;;;;;;5012507;28;20250;-79
2022/11/18 04:31:29;;;;;;;17.23;11.57;;;;;;;;;;5011708;28;20253;-80
2022/11/18 04:33:56;;;;;;;17.67;11.07;;;;;;;;;;5013408;28;20222;-79
2022/11/18 04:36:23;;;;;;;17.57;11.43;;;;;;;;;;5009345;28;21059;-81
2022/11/18 04:38:51;;;;;;;20.17;11.77;;;;;;;;;;5011793;28;20230;-82
2022/11/18 04:41:19;;;;;;;14.67;10.37;;;;;;;;;;5012416;28;20234;-82
2022/11/18 04:43:46;;;;;;;24.00;11.67;;;;;;;;;;5015246;28;20210;-82
2022/11/18 04:46:13;;;;;;;18.03;10.40;;;;;;;;;;5013986;28;20242;-82
2022/11/18 04:48:40;;;;;;;15.40;10.33;;;;;;;;;;5011581;28;20195;-82
2022/11/18 04:51:07;;;;;;;18.47;10.03;;;;;;;;;;5004955;28;20234;-81
2022/11/18 04:53:34;;;;;;;20.27;11.10;;;;;;;;;;5013252;28;20206;-82
2022/11/18 04:56:06;;;;;;;15.70;9.93;;;;;;;;;;5012145;28;20245;-81
2022/11/18 04:58:33;;;;;;;16.30;10.43;;;;;;;;;;5011218;28;20867;-81
2022/11/18 05:01:00;;;;;;;20.63;11.33;;;;;;;;;;5007557;28;20234;-81
2022/11/18 05:03:28;;;;;;;13.93;9.87;;;;;;;;;;5007216;28;20219;-81
2022/11/18 05:05:55;;;;;;;16.87;10.90;;;;;;;;;;5012053;28;20234;-85
2022/11/18 05:08:22;;;;;;;19.73;10.53;;;;;;;;;;5012070;28;20199;-81
2022/11/18 05:10:49;;;;;;;17.17;11.33;;;;;;;;;;4997566;28;20254;-82
2022/11/18 05:13:16;;;;;;;17.87;10.90;;;;;;;;;;4993865;28;20962;-81
2022/11/18 05:15:43;;;;;;;18.40;11.27;;;;;;;;;;4993278;28;20250;-81
2022/11/18 05:18:11;;;;;;;21.67;12.03;;;;;;;;;;5006773;28;20238;-83
2022/11/18 05:20:38;;;;;;;22.67;12.33;;;;;;;;;;5011508;28;20247;-81
2022/11/18 05:23:05;;;;;;;20.33;11.80;;;;;;;;;;5011093;28;20217;-81
2022/11/18 05:25:32;;;;;;;21.47;13.70;;;;;;;;;;5012958;28;20213;-81
2022/11/18 05:27:59;;;;;;;19.77;13.00;;;;;;;;;;5005158;28;20230;-80
2022/11/18 05:30:28;;;;;;;18.13;12.00;;;;;;;;;;5011717;28;20206;-79
2022/11/18 05:32:55;;;;;;;24.87;14.73;;;;;;;;;;5011747;28;20214;-79
2022/11/18 05:35:22;;;;;;;21.93;13.20;;;;;;;;;;5011005;28;20203;-79
2022/11/18 05:37:49;;;;;;;23.43;14.57;;;;;;;;;;5006765;28;20262;-79
2022/11/18 05:40:17;;;;;;;22.50;13.90;;;;;;;;;;5001530;28;20202;-79
2022/11/18 05:45:30;;;;;;;22.40;13.83;;;;;;;;;;5004693;28;20339;-79
2022/11/18 05:48:01;;;;;;;22.37;13.67;;;;;;;;;;5003917;28;20235;-81
2022/11/18 05:50:29;;;;;;;21.87;13.50;;;;;;;;;;5005543;28;20210;-80
2022/11/18 05:52:56;;;;;;;26.67;14.43;;;;;;;;;;5002104;28;20218;-80
2022/11/18 05:55:24;;;;;;;23.50;15.07;;;;;;;;;;4997101;28;20261;-79
2022/11/18 05:57:51;;;;;;;26.50;14.83;;;;;;;;;;5001017;28;20246;-80
2022/11/18 06:00:19;;;;;;;26.63;16.80;;;;;;;;;;4999340;28;20214;-79
2022/11/18 06:02:50;;;;;;;30.90;14.97;;;;;;;;;;5004569;28;20208;-80
2022/11/18 06:05:18;;;;;;;24.93;15.17;;;;;;;;;;5003957;28;20211;-80
2022/11/18 06:07:45;;;;;;;24.60;13.90;;;;;;;;;;4998429;28;20277;-79
2022/11/18 06:10:14;;;;;;;26.23;15.07;;;;;;;;;;5001450;28;20206;-79
2022/11/18 06:12:44;;;;;;;30.83;15.67;;;;;;;;;;5000817;28;20234;-79
2022/11/18 06:15:13;;;;;;;24.57;14.83;;;;;;;;;;5007881;28;20783;-79
2022/11/18 06:17:42;;;;;;;22.07;14.33;;;;;;;;;;5001271;28;20237;-79
2022/11/18 06:20:11;;;;;;;26.50;15.20;;;;;;;;;;5003092;28;20207;-79
2022/11/18 06:22:39;;;;;;;30.37;14.80;;;;;;;;;;5000467;28;20230;-79
2022/11/18 06:25:06;;;;;;;21.73;14.33;;;;;;;;;;5002568;28;20210;-78
2022/11/18 06:27:34;;;;;;;23.70;14.87;;;;;;;;;;5002711;28;20230;-78
2022/11/18 06:30:01;;;;;;;28.17;15.13;;;;;;;;;;5004225;28;20215;-79
2022/11/18 06:32:28;;;;;;;24.10;14.80;;;;;;;;;;4996905;28;20231;-78
2022/11/18 06:34:55;;;;;;;25.77;15.93;;;;;;;;;;5002911;28;20222;-78
2022/11/18 06:37:24;;;;;;;24.90;15.17;;;;;;;;;;5003510;28;20955;-79
2022/11/18 06:39:51;;;;;;;24.80;15.37;;;;;;;;;;5000930;28;20232;-79
2022/11/18 06:44:59;;;;;;;28.07;15.70;;;;;;;;;;5000815;28;20195;-79
2022/11/18 06:47:25;;;;;;;27.63;15.40;;;;;;;;;;4995557;28;20236;-79
2022/11/18 06:49:52;;;;;;;27.63;15.23;;;;;;;;;;4996206;28;20545;-79
2022/11/18 06:52:19;;;;;;;22.30;14.83;;;;;;;;;;4995064;28;20230;-79
2022/11/18 06:54:48;;;;;;;25.43;16.23;;;;;;;;;;4999816;28;20213;-79
2022/11/18 06:57:15;;;;;;;26.70;16.27;;;;;;;;;;4999667;28;20936;-79
2022/11/18 06:59:42;;;;;;;27.40;16.03;;;;;;;;;;4996686;28;20230;-79
2022/11/18 07:02:09;;;;;;;28.23;14.70;;;;;;;;;;4999727;28;20565;-79
2022/11/18 07:04:38;;;;;;;38.83;24.13;;;;;;;;;;4999457;28;20283;-79
2022/11/18 07:07:05;;;;;;;38.07;16.53;;;;;;;;;;5000058;28;20575;-79
2022/11/18 07:09:32;;;;;;;33.83;16.80;;;;;;;;;;4997431;28;20207;-79
2022/11/18 07:12:01;;;;;;;27.67;16.33;;;;;;;;;;5002092;28;20238;-79
2022/11/18 07:14:28;;;;;;;29.83;16.63;;;;;;;;;;4998005;28;20243;-79
2022/11/18 07:16:55;;;;;;;36.47;17.53;;;;;;;;;;4998513;28;20238;-79
2022/11/18 07:19:22;;;;;;;29.43;15.63;;;;;;;;;;5000674;28;20277;-79
2022/11/18 07:21:49;;;;;;;29.00;15.60;;;;;;;;;;4994680;28;20239;-79
2022/11/18 07:24:17;;;;;;;17.10;9.77;;;;;;;;;;5006394;28;20731;-79
2022/11/18 07:26:44;;;;;;;15.93;9.07;;;;;;;;;;5004254;28;20240;-80
2022/11/18 07:29:12;;;;;;;14.87;8.40;;;;;;;;;;5000175;28;20202;-80
2022/11/18 07:31:39;;;;;;;14.83;8.00;;;;;;;;;;4997427;28;20239;-79
2022/11/18 07:34:06;;;;;;;12.13;7.30;;;;;;;;;;4996134;28;20928;-79
2022/11/18 07:36:34;;;;;;;12.73;6.83;;;;;;;;;;5003066;28;20243;-79
2022/11/18 07:39:01;;;;;;;10.17;5.87;;;;;;;;;;5004388;28;20611;-80
2022/11/18 07:41:30;;;;;;;16.73;7.73;;;;;;;;;;5000759;28;20239;-79
2022/11/18 07:43:58;;;;;;;9.73;6.50;;;;;;;;;;5000940;28;20212;-80
2022/11/18 07:46:27;;;;;;;14.23;7.87;;;;;;;;;;4996759;28;20230;-79
2022/11/18 07:48:55;;;;;;;10.83;6.97;;;;;;;;;;4997982;28;20213;-79
2022/11/18 07:51:23;;;;;;;13.40;7.03;;;;;;;;;;4999629;28;20242;-79
2022/11/18 07:53:50;;;;;;;12.03;6.93;;;;;;;;;;4998334;28;20221;-79
2022/11/18 07:56:18;;;;;;;14.27;7.77;;;;;;;;;;4999956;28;21057;-79
2022/11/18 07:58:45;;;;;;;14.97;6.67;;;;;;;;;;5000845;28;20237;-79
2022/11/18 08:01:13;;;;;;;8.37;6.13;;;;;;;;;;4999177;28;22913;-80
2022/11/18 08:03:41;;;;;;;10.47;6.30;;;;;;;;;;5000116;28;20203;-79
2022/11/18 08:06:09;;;;;;;9.67;5.80;;;;;;;;;;4998118;28;20937;-79
2022/11/18 08:08:37;;;;;;;9.17;5.97;;;;;;;;;;5001402;28;21042;-79
2022/11/18 08:11:05;;;;;;;11.50;6.43;;;;;;;;;;5001349;28;22974;-79
2022/11/18 08:13:33;;;;;;;12.60;6.03;;;;;;;;;;5002772;28;20254;-79
2022/11/18 08:16:00;;;;;;;11.50;7.03;;;;;;;;;;5000206;28;20240;-80
2022/11/18 08:18:28;;;;;;;10.83;6.73;;;;;;;;;;5005668;28;20231;-80
2022/11/18 08:20:57;;;;;;;8.93;5.57;;;;;;;;;;5006128;28;20238;-80
2022/11/18 08:23:25;;;;;;;9.40;5.70;;;;;;;;;;4999535;28;20991;-79
2022/11/18 08:25:52;;;;;;;8.17;5.37;;;;;;;;;;4996971;28;20266;-80
2022/11/18 08:28:19;;;;;;;7.03;5.20;;;;;;;;;;5001384;28;20233;-79
2022/11/18 08:30:46;;;;;;;11.63;5.90;;;;;;;;;;5005591;28;20790;-80
2022/11/18 08:33:13;;;;;;;11.83;6.13;;;;;;;;;;5010809;28;20286;-80
2022/11/18 08:35:40;;;;;;;7.70;5.20;;;;;;;;;;5001346;28;20282;-80
2022/11/18 08:38:08;;;;;;;8.87;4.93;;;;;;;;;;5003337;28;20226;-80
2022/11/18 08:40:35;;;;;;;5.23;4.57;;;;;;;;;;5005032;28;20211;-80
2022/11/18 08:43:03;;;;;;;7.07;5.47;;;;;;;;;;5005472;28;20214;-79
2022/11/18 08:45:30;;;;;;;10.33;5.47;;;;;;;;;;5000504;28;20211;-80
2022/11/18 08:47:57;;;;;;;9.80;5.30;;;;;;;;;;5002203;28;20231;-80
2022/11/18 08:50:24;;;;;;;5.33;4.83;;;;;;;;;;5003968;28;20218;-80
2022/11/18 08:52:51;;;;;;;5.73;4.70;;;;;;;;;;5007024;28;20219;-80
2022/11/18 08:55:20;;;;;;;4.77;4.33;;;;;;;;;;5002589;28;20215;-79
2022/11/18 08:57:48;;;;;;;5.50;4.13;;;;;;;;;;5002001;28;20265;-81
2022/11/18 09:00:16;;;;;;;4.80;4.37;;;;;;;;;;5001694;28;20941;-80
2022/11/18 09:02:43;;;;;;;6.47;4.33;;;;;;;;;;5003517;28;20239;-81
2022/11/18 09:05:10;;;;;;;6.40;4.27;;;;;;;;;;5002060;28;20210;-80
2022/11/18 09:07:37;;;;;;;3.70;3.40;;;;;;;;;;5000480;28;20241;-80
2022/11/18 09:10:04;;;;;;;5.00;3.80;;;;;;;;;;5004778;28;20727;-80
2022/11/18 09:12:33;;;;;;;5.37;4.00;;;;;;;;;;5003241;28;20242;-80
2022/11/18 09:15:00;;;;;;;7.07;5.10;;;;;;;;;;5001235;28;20216;-80
2022/11/18 09:17:27;;;;;;;4.87;4.37;;;;;;;;;;5004257;28;20355;-80
2022/11/18 09:19:54;;;;;;;5.90;3.70;;;;;;;;;;5000564;28;21023;-80
2022/11/18 09:22:21;;;;;;;3.60;3.17;;;;;;;;;;4997993;28;20231;-80
2022/11/18 09:24:48;;;;;;;3.90;3.50;;;;;;;;;;5000489;28;20217;-80
2022/11/18 09:27:15;;;;;;;4.53;3.00;;;;;;;;;;5006263;28;20361;-80
2022/11/18 09:29:44;;;;;;;2.87;2.50;;;;;;;;;;5001274;28;20202;-79
2022/11/18 09:32:11;;;;;;;4.83;2.73;;;;;;;;;;5003185;28;20270;-80
2022/11/18 09:34:38;;;;;;;3.53;3.20;;;;;;;;;;5000445;28;20590;-80
2022/11/18 09:37:05;;;;;;;3.77;3.10;;;;;;;;;;5002378;28;20245;-80
2022/11/18 09:39:32;;;;;;;8.30;6.90;;;;;;;;;;5002046;28;20231;-80
2022/11/18 09:42:05;;;;;;;5.13;3.13;;;;;;;;;;5003470;28;20328;-80
2022/11/18 09:44:37;;;;;;;2.43;2.30;;;;;;;;;;5001455;28;20217;-80
2022/11/18 09:47:09;;;;;;;3.67;2.63;;;;;;;;;;4999434;28;20235;-80
2022/11/18 09:49:37;;;;;;;2.90;2.70;;;;;;;;;;4999793;28;20399;-81
2022/11/18 09:52:06;;;;;;;3.20;2.90;;;;;;;;;;4999360;28;21041;-80
2022/11/18 09:54:34;;;;;;;2.80;2.60;;;;;;;;;;5001499;28;20225;-80
2022/11/18 09:57:02;;;;;;;2.43;2.23;;;;;;;;;;5003416;28;21022;-80
2022/11/18 09:59:31;;;;;;;4.60;2.80;;;;;;;;;;4998233;28;20241;-80
2022/11/18 10:02:02;;;;;;;4.40;2.10;;;;;;;;;;5000191;28;20234;-80
2022/11/18 10:04:31;;;;;;;2.27;2.13;;;;;;;;;;5000155;28;20211;-80
2022/11/18 10:06:59;;;;;;;2.60;2.33;;;;;;;;;;4999606;28;20235;-80
2022/11/18 10:09:28;;;;;;;3.00;2.57;;;;;;;;;;4995857;28;20211;-80
2022/11/18 10:12:02;;;;;;;2.70;2.50;;;;;;;;;;5003672;28;20230;-80
2022/11/18 10:14:40;;;;;;;2.80;2.60;;;;;;;;;;4999792;28;21071;-80
2022/11/18 10:17:11;;;;;;;5.10;3.80;;;;;;;;;;5001136;28;20229;-80
2022/11/18 10:19:40;;;;;;;9.50;3.87;;;;;;;;;;5001133;28;20218;-80
2022/11/18 10:22:15;;;;;;;3.70;3.40;;;;;;;;;;5002718;28;20227;-80
2022/11/18 10:24:43;;;;;;;3.90;3.60;;;;;;;;;;4997890;28;21059;-80
2022/11/18 10:27:12;;;;;;;4.63;3.80;;;;;;;;;;4999320;28;20231;-80
2022/11/18 10:29:39;;;;;;;5.17;4.00;;;;;;;;;;4999503;28;20298;-80
2022/11/18 10:32:07;;;;;;;5.00;4.33;;;;;;;;;;5000550;28;20226;-80
2022/11/18 10:34:35;;;;;;;4.30;3.90;;;;;;;;;;5001106;28;20217;-80
2022/11/18 10:37:05;;;;;;;4.43;4.03;;;;;;;;;;4998615;28;20235;-80
2022/11/18 10:39:33;;;;;;;4.77;4.10;;;;;;;;;;5002829;28;20238;-80
2022/11/18 10:42:02;;;;;;;5.10;4.60;;;;;;;;;;4998855;28;20232;-80
2022/11/18 10:44:36;;;;;;;4.97;3.80;;;;;;;;;;5000339;28;20214;-79
2022/11/18 10:47:15;;;;;;;5.80;4.43;;;;;;;;;;5000427;28;22833;-80
2022/11/18 10:49:42;;;;;;;6.07;4.57;;;;;;;;;;5000229;28;20207;-79
2022/11/18 10:52:11;;;;;;;5.60;3.90;;;;;;;;;;4995571;28;20227;-79
2022/11/18 10:54:39;;;;;;;11.17;6.97;;;;;;;;;;5001793;28;20213;-79
2022/11/18 10:57:07;;;;;;;8.23;6.13;;;;;;;;;;5000327;28;20235;-79
2022/11/18 10:59:36;;;;;;;9.30;6.13;;;;;;;;;;4999640;28;20646;-79
2022/11/18 11:02:04;;;;;;;5.03;4.47;;;;;;;;;;5001871;28;20238;-79
2022/11/18 11:04:31;;;;;;;7.00;5.80;;;;;;;;;;5001961;28;20231;-79
2022/11/18 11:06:59;;;;;;;5.43;4.93;;;;;;;;;;5002944;28;20359;-79
2022/11/18 11:09:28;;;;;;;5.10;4.60;;;;;;;;;;4999530;28;20318;-79
2022/11/18 11:11:57;;;;;;;5.17;4.70;;;;;;;;;;4996877;28;20343;-79
2022/11/18 11:14:26;;;;;;;5.10;4.20;;;;;;;;;;4998458;28;20581;-79
2022/11/18 11:17:05;;;;;;;5.07;4.30;;;;;;;;;;4998896;28;20226;-79
2022/11/18 11:19:38;;;;;;;4.60;4.20;;;;;;;;;;4998119;28;20578;-79
2022/11/18 11:22:08;;;;;;;4.80;4.40;;;;;;;;;;4998748;28;20230;-79
2022/11/18 11:24:37;;;;;;;4.57;4.17;;;;;;;;;;5002565;28;20222;-79
2022/11/18 11:27:07;;;;;;;4.53;4.13;;;;;;;;;;4998477;28;20245;-79
2022/11/18 11:29:38;;;;;;;4.63;4.23;;;;;;;;;;4999608;28;20202;-79
2022/11/18 11:32:10;;;;;;;4.67;4.17;;;;;;;;;;5001817;28;20241;-79
2022/11/18 11:34:41;;;;;;;7.60;4.30;;;;;;;;;;4997877;28;20221;-79
2022/11/18 11:37:14;;;;;;;5.20;4.70;;;;;;;;;;4996591;28;20426;-79
2022/11/18 11:39:49;;;;;;;5.17;4.50;;;;;;;;;;5018308;28;20235;-79
2022/11/18 11:42:23;;;;;;;7.13;5.00;;;;;;;;;;5022583;28;20226;-79
2022/11/18 11:44:57;;;;;;;8.07;5.00;;;;;;;;;;5021741;28;20206;-79
2022/11/18 11:50:15;;;;;;;4.63;4.10;;;;;;;;;;5020708;28;20301;-79
2022/11/18 11:52:47;;;;;;;4.90;4.17;;;;;;;;;;5020452;28;20276;-79
2022/11/18 11:55:20;;;;;;;6.73;4.87;;;;;;;;;;5024367;28;20217;-80
2022/11/18 11:58:01;;;;;;;5.17;4.77;;;;;;;;;;5023763;28;20234;-80
2022/11/18 12:00:31;;;;;;;5.47;4.07;;;;;;;;;;5022081;28;20222;-79
2022/11/18 12:03:03;;;;;;;6.10;4.60;;;;;;;;;;5020993;28;20211;-80
2022/11/18 12:05:33;;;;;;;5.30;4.20;;;;;;;;;;5022764;28;20213;-79
2022/11/18 12:08:02;;;;;;;4.40;4.00;;;;;;;;;;5021839;28;20300;-80
2022/11/18 12:10:33;;;;;;;4.70;4.23;;;;;;;;;;5019126;28;20242;-79
2022/11/18 12:13:13;;;;;;;10.33;4.43;;;;;;;;;;5021424;28;20202;-79
2022/11/18 12:15:44;;;;;;;4.60;4.20;;;;;;;;;;5023771;28;20242;-79
2022/11/18 12:18:13;;;;;;;7.13;4.00;;;;;;;;;;5017587;28;20277;-80
2022/11/18 12:20:43;;;;;;;4.63;4.10;;;;;;;;;;5019648;28;20238;-79
2022/11/18 12:23:15;;;;;;;5.90;4.47;;;;;;;;;;5019361;28;20763;-79
2022/11/18 12:25:51;;;;;;;5.93;5.13;;;;;;;;;;5019619;28;20878;-79
2022/11/18 12:28:23;;;;;;;4.87;4.27;;;;;;;;;;5016051;28;20227;-80
2022/11/18 12:30:50;;;;;;;4.37;3.70;;;;;;;;;;5021856;28;20231;-79
2022/11/18 12:33:18;;;;;;;4.17;3.77;;;;;;;;;;5021295;28;20221;-80
2022/11/18 12:35:47;;;;;;;3.93;3.50;;;;;;;;;;5018392;28;20239;-79
2022/11/18 12:38:28;;;;;;;4.30;3.67;;;;;;;;;;5020975;28;20311;-79
2022/11/18 12:40:56;;;;;;;3.70;3.40;;;;;;;;;;5020978;28;20238;-79
2022/11/18 12:43:46;;;;;;;5.43;3.50;;;;;;;;;;5015999;28;20566;-80
2022/11/18 12:46:28;;;;;;;4.57;4.00;;;;;;;;;;5015285;28;20231;-80
2022/11/18 12:48:55;;;;;;;5.10;3.73;;;;;;;;;;5025022;28;20211;-80
2022/11/18 12:51:47;;;;;;;5.07;3.87;;;;;;;;;;5024235;28;20223;-80
2022/11/18 12:54:26;;;;;;;5.87;4.03;;;;;;;;;;5025254;28;20228;-79
2022/11/18 12:56:54;;;;;;;6.80;3.80;;;;;;;;;;5022361;28;20292;-79
2022/11/18 12:59:28;;;;;;;6.90;4.07;;;;;;;;;;5021523;28;20656;-79
2022/11/18 13:02:05;;;;;;;6.20;4.13;;;;;;;;;;5023537;28;20240;-79
2022/11/18 13:04:33;;;;;;;5.13;4.33;;;;;;;;;;5022185;28;21136;-79
2022/11/18 13:07:00;;;;;;;5.70;3.93;;;;;;;;;;5021674;28;20242;-79
2022/11/18 13:09:29;;;;;;;5.47;3.63;;;;;;;;;;5023208;28;20214;-79
2022/11/18 13:12:00;;;;;;;4.40;3.77;;;;;;;;;;5021645;28;20289;-81
2022/11/18 13:20:26;;;;;;;4.80;3.37;;;;;;;;;;5021957;28;20229;-80
2022/11/18 13:25:52;;;;;;;3.90;3.03;;;;;;;;;;4976793;28;20228;-81
2022/11/18 13:28:26;;;;;;;3.13;2.93;;;;;;;;;;5010785;28;20254;-81
2022/11/18 13:30:56;;;;;;;5.27;3.13;;;;;;;;;;5027869;28;20233;-81
2022/11/18 13:33:23;;;;;;;3.67;3.37;;;;;;;;;;5021102;28;20204;-80
2022/11/18 13:35:50;;;;;;;4.30;3.30;;;;;;;;;;5024898;28;22625;-80
2022/11/18 13:38:22;;;;;;;3.63;3.30;;;;;;;;;;5022332;28;20234;-80
2022/11/18 13:41:07;;;;;;;4.83;3.20;;;;;;;;;;5021385;28;20230;-80
2022/11/18 13:43:35;;;;;;;3.93;3.10;;;;;;;;;;5024748;28;20221;-81
2022/11/18 13:46:05;;;;;;;4.60;3.17;;;;;;;;;;5025318;28;20325;-81
2022/11/18 13:48:33;;;;;;;3.83;3.27;;;;;;;;;;5027429;28;20706;-81
2022/11/18 13:51:01;;;;;;;3.90;3.50;;;;;;;;;;5028738;28;20238;-81
2022/11/18 13:53:30;;;;;;;4.43;3.20;;;;;;;;;;5029689;28;20203;-82
2022/11/18 13:56:00;;;;;;;4.63;3.43;;;;;;;;;;5024946;28;20233;-82
2022/11/18 13:58:33;;;;;;;4.07;3.13;;;;;;;;;;5027515;28;20252;-82
2022/11/18 14:01:02;;;;;;;5.07;3.30;;;;;;;;;;5024540;28;20250;-81
2022/11/18 14:03:33;;;;;;;3.67;2.60;;;;;;;;;;5023855;28;20230;-82
2022/11/18 14:06:01;;;;;;;3.80;2.80;;;;;;;;;;5025532;28;20769;-82
2022/11/18 14:08:29;;;;;;;3.30;2.80;;;;;;;;;;5026444;28;20210;-82
2022/11/18 14:10:56;;;;;;;4.30;2.80;;;;;;;;;;5017980;28;20230;-81
2022/11/18 14:13:25;;;;;;;4.53;3.00;;;;;;;;;;5017667;28;20216;-81
2022/11/18 14:15:53;;;;;;;4.23;3.50;;;;;;;;;;5021897;28;20226;-82
2022/11/18 14:18:27;;;;;;;3.70;2.93;;;;;;;;;;5027304;28;20237;-82
2022/11/18 14:20:55;;;;;;;5.43;2.93;;;;;;;;;;5026489;28;20238;-82
2022/11/18 14:23:29;;;;;;;3.13;2.83;;;;;;;;;;5028476;28;20202;-82
2022/11/18 14:26:00;;;;;;;2.80;2.50;;;;;;;;;;5023735;28;20222;-82
2022/11/18 14:28:28;;;;;;;3.23;2.40;;;;;;;;;;5027693;28;20206;-82
2022/11/18 14:30:57;;;;;;;4.03;2.40;;;;;;;;;;5027235;28;20230;-82
2022/11/18 14:33:26;;;;;;;7.27;2.50;;;;;;;;;;5024524;28;20225;-82
2022/11/18 14:35:55;;;;;;;6.60;2.70;;;;;;;;;;5026265;28;20313;-82
2022/11/18 14:38:23;;;;;;;2.77;2.53;;;;;;;;;;5029933;28;20211;-82
2022/11/18 14:40:57;;;;;;;3.90;2.70;;;;;;;;;;5026809;28;20243;-82
2022/11/18 14:43:24;;;;;;;6.13;3.07;;;;;;;;;;5029388;28;20207;-82
2022/11/18 14:45:53;;;;;;;6.50;2.90;;;;;;;;;;5028501;28;20598;-82
2022/11/18 14:48:21;;;;;;;3.43;3.10;;;;;;;;;;5030099;28;20277;-82
2022/11/18 14:50:51;;;;;;;5.87;3.10;;;;;;;;;;5028184;28;20237;-82
2022/11/18 14:53:18;;;;;;;5.60;2.90;;;;;;;;;;5029798;28;20204;-82
2022/11/18 14:55:46;;;;;;;5.67;3.03;;;;;;;;;;5026514;28;20305;-82
2022/11/18 14:58:14;;;;;;;3.57;2.60;;;;;;;;;;5031717;28;20230;-82
2022/11/18 15:00:41;;;;;;;4.53;2.40;;;;;;;;;;5024643;28;20297;-82
2022/11/18 15:03:08;;;;;;;3.77;2.47;;;;;;;;;;5030914;28;20211;-81
2022/11/18 15:05:35;;;;;;;2.20;2.00;;;;;;;;;;5026711;28;20223;-81
2022/11/18 15:08:04;;;;;;;2.80;2.37;;;;;;;;;;5029414;28;20229;-82
2022/11/18 15:10:31;;;;;;;3.97;3.20;;;;;;;;;;5024914;28;20219;-81